sensor_id;sensor_type;location;lat;lon;timestamp;temperature;humidity
76996;DHT22;65929;49.062;10.338;2023-06-04T00:00:35;11.50;50.90
76996;DHT22;65929;49.062;10.338;2023-06-04T00:01:36;11.50;50.70
76996;DHT22;65929;49.062;10.338;2023-06-04T00:02:37;11.50;50.70
76996;DHT22;65929;49.062;10.338;2023-06-04T00:03:38;11.50;50.70
76996;DHT22;65929;49.062;10.338;2023-06-04T00:04:39;11.50;50.80
76996;DHT22;65929;49.062;10.338;2023-06-04T00:05:41;11.50;51.60
76996;DHT22;65929;49.062;10.338;2023-06-04T00:06:42;11.50;51.30
76996;DHT22;65929;49.062;10.338;2023-06-04T00:07:44;11.40;51.40
76996;DHT22;65929;49.062;10.338;2023-06-04T00:08:45;11.40;51.30
76996;DHT22;65929;49.062;10.338;2023-06-04T00:09:46;11.40;51.40
76996;DHT22;65929;49.062;10.338;2023-06-04T00:10:47;11.30;51.60
76996;DHT22;65929;49.062;10.338;2023-06-04T00:11:48;11.30;51.40
76996;DHT22;65929;49.062;10.338;2023-06-04T00:12:49;11.30;51.30
76996;DHT22;65929;49.062;10.338;2023-06-04T00:13:50;11.30;51.40
76996;DHT22;65929;49.062;10.338;2023-06-04T00:14:51;11.30;51.50
76996;DHT22;65929;49.062;10.338;2023-06-04T00:15:52;11.30;51.40
76996;DHT22;65929;49.062;10.338;2023-06-04T00:16:53;11.30;51.20
76996;DHT22;65929;49.062;10.338;2023-06-04T00:17:54;11.30;51.50
76996;DHT22;65929;49.062;10.338;2023-06-04T00:18:57;11.20;51.60
76996;DHT22;65929;49.062;10.338;2023-06-04T00:19:58;11.20;51.40
76996;DHT22;65929;49.062;10.338;2023-06-04T00:21:00;11.20;51.30
76996;DHT22;65929;49.062;10.338;2023-06-04T00:22:01;11.20;51.70
76996;DHT22;65929;49.062;10.338;2023-06-04T00:23:02;11.10;52.00
76996;DHT22;65929;49.062;10.338;2023-06-04T00:24:03;11.10;52.00
76996;DHT22;65929;49.062;10.338;2023-06-04T00:25:05;11.10;52.20
76996;DHT22;65929;49.062;10.338;2023-06-04T00:26:06;11.10;52.50
76996;DHT22;65929;49.062;10.338;2023-06-04T00:27:08;11.10;52.50
76996;DHT22;65929;49.062;10.338;2023-06-04T00:28:09;11.00;52.90
76996;DHT22;65929;49.062;10.338;2023-06-04T00:29:10;11.00;53.10
76996;DHT22;65929;49.062;10.338;2023-06-04T00:30:12;11.00;52.90
76996;DHT22;65929;49.062;10.338;2023-06-04T00:31:13;10.90;53.10
76996;DHT22;65929;49.062;10.338;2023-06-04T00:32:14;10.90;53.40
76996;DHT22;65929;49.062;10.338;2023-06-04T00:33:15;10.80;53.30
76996;DHT22;65929;49.062;10.338;2023-06-04T00:34:17;10.80;53.30
76996;DHT22;65929;49.062;10.338;2023-06-04T00:35:19;10.80;53.20
76996;DHT22;65929;49.062;10.338;2023-06-04T00:36:22;10.70;53.80
76996;DHT22;65929;49.062;10.338;2023-06-04T00:37:24;10.70;53.60
76996;DHT22;65929;49.062;10.338;2023-06-04T00:38:24;10.70;53.60
76996;DHT22;65929;49.062;10.338;2023-06-04T00:39:25;10.70;53.50
76996;DHT22;65929;49.062;10.338;2023-06-04T00:40:26;10.70;53.40
76996;DHT22;65929;49.062;10.338;2023-06-04T00:41:27;10.70;53.50
76996;DHT22;65929;49.062;10.338;2023-06-04T00:42:28;10.70;53.50
76996;DHT22;65929;49.062;10.338;2023-06-04T00:43:29;10.70;53.40
76996;DHT22;65929;49.062;10.338;2023-06-04T00:44:32;10.60;53.60
76996;DHT22;65929;49.062;10.338;2023-06-04T00:45:34;10.60;53.40
76996;DHT22;65929;49.062;10.338;2023-06-04T00:46:35;10.60;53.40
76996;DHT22;65929;49.062;10.338;2023-06-04T00:47:39;10.50;53.40
76996;DHT22;65929;49.062;10.338;2023-06-04T00:48:43;10.50;53.60
76996;DHT22;65929;49.062;10.338;2023-06-04T00:49:44;10.50;53.50
76996;DHT22;65929;49.062;10.338;2023-06-04T00:50:45;10.50;53.30
76996;DHT22;65929;49.062;10.338;2023-06-04T00:51:49;10.50;53.30
76996;DHT22;65929;49.062;10.338;2023-06-04T00:52:51;10.40;53.30
76996;DHT22;65929;49.062;10.338;2023-06-04T00:53:52;10.40;53.40
76996;DHT22;65929;49.062;10.338;2023-06-04T00:54:53;10.40;54.00
76996;DHT22;65929;49.062;10.338;2023-06-04T00:55:55;10.40;54.50
76996;DHT22;65929;49.062;10.338;2023-06-04T00:56:56;10.40;56.30
76996;DHT22;65929;49.062;10.338;2023-06-04T00:57:57;10.40;56.90
76996;DHT22;65929;49.062;10.338;2023-06-04T00:58:58;10.40;56.50
76996;DHT22;65929;49.062;10.338;2023-06-04T00:59:59;10.30;56.80
76996;DHT22;65929;49.062;10.338;2023-06-04T01:01:02;10.30;56.90
76996;DHT22;65929;49.062;10.338;2023-06-04T01:02:08;10.30;56.50
76996;DHT22;65929;49.062;10.338;2023-06-04T01:03:14;10.20;56.30
76996;DHT22;65929;49.062;10.338;2023-06-04T01:04:30;10.20;56.20
76996;DHT22;65929;49.062;10.338;2023-06-04T01:05:37;10.10;56.40
76996;DHT22;65929;49.062;10.338;2023-06-04T01:06:44;10.10;57.30
76996;DHT22;65929;49.062;10.338;2023-06-04T01:07:48;10.10;56.40
76996;DHT22;65929;49.062;10.338;2023-06-04T01:08:50;10.10;56.70
76996;DHT22;65929;49.062;10.338;2023-06-04T01:09:55;10.10;56.50
76996;DHT22;65929;49.062;10.338;2023-06-04T01:10:56;10.00;56.30
76996;DHT22;65929;49.062;10.338;2023-06-04T01:11:57;10.00;56.30
76996;DHT22;65929;49.062;10.338;2023-06-04T01:12:58;10.00;56.50
76996;DHT22;65929;49.062;10.338;2023-06-04T01:14:00;10.00;56.10
76996;DHT22;65929;49.062;10.338;2023-06-04T01:15:01;10.00;55.60
76996;DHT22;65929;49.062;10.338;2023-06-04T01:16:02;10.00;56.00
76996;DHT22;65929;49.062;10.338;2023-06-04T01:17:11;10.00;57.30
76996;DHT22;65929;49.062;10.338;2023-06-04T01:18:15;10.00;58.20
76996;DHT22;65929;49.062;10.338;2023-06-04T01:20:58;9.90;57.00
76996;DHT22;65929;49.062;10.338;2023-06-04T01:22:03;9.80;56.20
76996;DHT22;65929;49.062;10.338;2023-06-04T01:23:28;9.80;56.20
76996;DHT22;65929;49.062;10.338;2023-06-04T01:24:35;9.80;56.70
76996;DHT22;65929;49.062;10.338;2023-06-04T01:25:39;9.80;56.90
76996;DHT22;65929;49.062;10.338;2023-06-04T01:26:40;9.80;57.20
76996;DHT22;65929;49.062;10.338;2023-06-04T01:27:42;9.80;56.70
76996;DHT22;65929;49.062;10.338;2023-06-04T01:28:44;9.80;55.80
76996;DHT22;65929;49.062;10.338;2023-06-04T01:29:46;9.80;55.70
76996;DHT22;65929;49.062;10.338;2023-06-04T01:30:50;9.70;55.20
76996;DHT22;65929;49.062;10.338;2023-06-04T01:31:52;9.70;55.10
76996;DHT22;65929;49.062;10.338;2023-06-04T01:32:55;9.70;54.70
76996;DHT22;65929;49.062;10.338;2023-06-04T01:33:56;9.70;55.00
76996;DHT22;65929;49.062;10.338;2023-06-04T01:34:59;9.70;54.70
76996;DHT22;65929;49.062;10.338;2023-06-04T01:36:00;9.70;54.30
76996;DHT22;65929;49.062;10.338;2023-06-04T01:37:05;9.70;54.20
76996;DHT22;65929;49.062;10.338;2023-06-04T01:38:06;9.70;55.80
76996;DHT22;65929;49.062;10.338;2023-06-04T01:39:08;9.70;56.50
76996;DHT22;65929;49.062;10.338;2023-06-04T01:40:11;9.70;57.60
76996;DHT22;65929;49.062;10.338;2023-06-04T01:41:13;9.70;57.00
76996;DHT22;65929;49.062;10.338;2023-06-04T01:42:14;9.70;57.40
76996;DHT22;65929;49.062;10.338;2023-06-04T01:43:15;9.70;57.10
76996;DHT22;65929;49.062;10.338;2023-06-04T01:44:16;9.60;57.40
76996;DHT22;65929;49.062;10.338;2023-06-04T01:45:17;9.70;57.60
76996;DHT22;65929;49.062;10.338;2023-06-04T01:46:18;9.70;57.50
76996;DHT22;65929;49.062;10.338;2023-06-04T01:47:19;9.70;57.20
76996;DHT22;65929;49.062;10.338;2023-06-04T01:48:20;9.70;56.60
76996;DHT22;65929;49.062;10.338;2023-06-04T01:49:21;9.70;56.30
76996;DHT22;65929;49.062;10.338;2023-06-04T01:50:22;9.70;55.60
76996;DHT22;65929;49.062;10.338;2023-06-04T01:51:23;9.70;55.70
76996;DHT22;65929;49.062;10.338;2023-06-04T01:52:24;9.70;56.60
76996;DHT22;65929;49.062;10.338;2023-06-04T01:53:25;9.70;58.70
76996;DHT22;65929;49.062;10.338;2023-06-04T01:54:27;9.80;57.40
76996;DHT22;65929;49.062;10.338;2023-06-04T01:55:30;9.80;56.50
76996;DHT22;65929;49.062;10.338;2023-06-04T01:56:33;9.80;56.30
76996;DHT22;65929;49.062;10.338;2023-06-04T01:57:35;9.80;55.40
76996;DHT22;65929;49.062;10.338;2023-06-04T01:58:37;9.80;55.50
76996;DHT22;65929;49.062;10.338;2023-06-04T01:59:38;9.80;55.50
76996;DHT22;65929;49.062;10.338;2023-06-04T02:00:39;9.80;55.00
76996;DHT22;65929;49.062;10.338;2023-06-04T02:01:40;9.80;54.60
76996;DHT22;65929;49.062;10.338;2023-06-04T02:02:42;9.80;54.30
76996;DHT22;65929;49.062;10.338;2023-06-04T02:03:43;9.80;54.60
76996;DHT22;65929;49.062;10.338;2023-06-04T02:04:45;9.80;55.30
76996;DHT22;65929;49.062;10.338;2023-06-04T02:05:47;9.70;57.60
76996;DHT22;65929;49.062;10.338;2023-06-04T02:06:50;9.70;58.30
76996;DHT22;65929;49.062;10.338;2023-06-04T02:07:51;9.70;58.50
76996;DHT22;65929;49.062;10.338;2023-06-04T02:08:52;9.70;56.80
76996;DHT22;65929;49.062;10.338;2023-06-04T02:09:56;9.70;55.80
76996;DHT22;65929;49.062;10.338;2023-06-04T02:10:57;9.70;55.70
76996;DHT22;65929;49.062;10.338;2023-06-04T02:11:58;9.70;55.20
76996;DHT22;65929;49.062;10.338;2023-06-04T02:13:01;9.60;54.90
76996;DHT22;65929;49.062;10.338;2023-06-04T02:14:05;9.60;55.00
76996;DHT22;65929;49.062;10.338;2023-06-04T02:15:09;9.60;55.10
76996;DHT22;65929;49.062;10.338;2023-06-04T02:16:10;9.60;55.30
76996;DHT22;65929;49.062;10.338;2023-06-04T02:17:11;9.50;55.30
76996;DHT22;65929;49.062;10.338;2023-06-04T02:18:17;9.50;55.30
76996;DHT22;65929;49.062;10.338;2023-06-04T02:19:21;9.50;55.50
76996;DHT22;65929;49.062;10.338;2023-06-04T02:20:22;9.40;56.00
76996;DHT22;65929;49.062;10.338;2023-06-04T02:21:23;9.40;55.90
76996;DHT22;65929;49.062;10.338;2023-06-04T02:22:24;9.40;55.70
76996;DHT22;65929;49.062;10.338;2023-06-04T02:23:26;9.40;55.90
76996;DHT22;65929;49.062;10.338;2023-06-04T02:24:26;9.40;56.40
76996;DHT22;65929;49.062;10.338;2023-06-04T02:25:29;9.40;56.90
76996;DHT22;65929;49.062;10.338;2023-06-04T02:26:30;9.40;56.80
76996;DHT22;65929;49.062;10.338;2023-06-04T02:27:31;9.40;57.10
76996;DHT22;65929;49.062;10.338;2023-06-04T02:28:32;9.30;57.90
76996;DHT22;65929;49.062;10.338;2023-06-04T02:29:33;9.30;59.40
76996;DHT22;65929;49.062;10.338;2023-06-04T02:30:34;9.30;59.40
76996;DHT22;65929;49.062;10.338;2023-06-04T02:31:35;9.20;58.80
76996;DHT22;65929;49.062;10.338;2023-06-04T02:32:36;9.20;58.30
76996;DHT22;65929;49.062;10.338;2023-06-04T02:33:38;9.20;58.00
76996;DHT22;65929;49.062;10.338;2023-06-04T02:34:39;9.20;57.60
76996;DHT22;65929;49.062;10.338;2023-06-04T02:35:40;9.20;57.30
76996;DHT22;65929;49.062;10.338;2023-06-04T02:36:41;9.20;57.30
76996;DHT22;65929;49.062;10.338;2023-06-04T02:37:52;9.20;57.60
76996;DHT22;65929;49.062;10.338;2023-06-04T02:38:53;9.20;56.90
76996;DHT22;65929;49.062;10.338;2023-06-04T02:39:54;9.20;56.60
76996;DHT22;65929;49.062;10.338;2023-06-04T02:40:57;9.20;56.50
76996;DHT22;65929;49.062;10.338;2023-06-04T02:41:58;9.20;56.70
76996;DHT22;65929;49.062;10.338;2023-06-04T02:42:59;9.20;56.60
76996;DHT22;65929;49.062;10.338;2023-06-04T02:44:00;9.20;56.90
76996;DHT22;65929;49.062;10.338;2023-06-04T02:45:04;9.20;56.70
76996;DHT22;65929;49.062;10.338;2023-06-04T02:46:05;9.30;57.00
76996;DHT22;65929;49.062;10.338;2023-06-04T02:47:07;9.20;56.70
76996;DHT22;65929;49.062;10.338;2023-06-04T02:48:08;9.20;57.00
76996;DHT22;65929;49.062;10.338;2023-06-04T02:49:09;9.20;57.10
76996;DHT22;65929;49.062;10.338;2023-06-04T02:50:14;9.20;57.20
76996;DHT22;65929;49.062;10.338;2023-06-04T02:51:18;9.20;57.70
76996;DHT22;65929;49.062;10.338;2023-06-04T02:52:21;9.20;58.60
76996;DHT22;65929;49.062;10.338;2023-06-04T02:53:23;9.20;59.40
76996;DHT22;65929;49.062;10.338;2023-06-04T02:54:24;9.20;59.80
76996;DHT22;65929;49.062;10.338;2023-06-04T02:55:25;9.20;59.10
76996;DHT22;65929;49.062;10.338;2023-06-04T02:56:27;9.20;59.10
76996;DHT22;65929;49.062;10.338;2023-06-04T02:57:28;9.20;58.00
76996;DHT22;65929;49.062;10.338;2023-06-04T02:58:29;9.20;57.50
76996;DHT22;65929;49.062;10.338;2023-06-04T02:59:32;9.10;57.20
76996;DHT22;65929;49.062;10.338;2023-06-04T03:00:32;9.10;56.70
76996;DHT22;65929;49.062;10.338;2023-06-04T03:01:33;9.00;56.80
76996;DHT22;65929;49.062;10.338;2023-06-04T03:02:35;9.00;56.60
76996;DHT22;65929;49.062;10.338;2023-06-04T03:03:36;9.00;56.70
76996;DHT22;65929;49.062;10.338;2023-06-04T03:04:36;9.00;57.20
76996;DHT22;65929;49.062;10.338;2023-06-04T03:05:37;9.00;58.00
76996;DHT22;65929;49.062;10.338;2023-06-04T03:06:40;9.00;59.40
76996;DHT22;65929;49.062;10.338;2023-06-04T03:07:46;9.00;59.30
76996;DHT22;65929;49.062;10.338;2023-06-04T03:08:49;9.00;58.20
76996;DHT22;65929;49.062;10.338;2023-06-04T03:09:51;8.90;58.80
76996;DHT22;65929;49.062;10.338;2023-06-04T03:10:52;8.90;59.70
76996;DHT22;65929;49.062;10.338;2023-06-04T03:11:54;8.90;61.10
76996;DHT22;65929;49.062;10.338;2023-06-04T03:12:55;8.90;60.70
76996;DHT22;65929;49.062;10.338;2023-06-04T03:13:56;8.90;61.30
76996;DHT22;65929;49.062;10.338;2023-06-04T03:14:57;8.80;61.20
76996;DHT22;65929;49.062;10.338;2023-06-04T03:15:58;8.80;60.60
76996;DHT22;65929;49.062;10.338;2023-06-04T03:17:02;8.70;60.00
76996;DHT22;65929;49.062;10.338;2023-06-04T03:18:11;8.70;60.20
76996;DHT22;65929;49.062;10.338;2023-06-04T03:19:12;8.70;59.20
76996;DHT22;65929;49.062;10.338;2023-06-04T03:20:13;8.60;59.00
76996;DHT22;65929;49.062;10.338;2023-06-04T03:21:14;8.60;58.60
76996;DHT22;65929;49.062;10.338;2023-06-04T03:22:15;8.60;58.10
76996;DHT22;65929;49.062;10.338;2023-06-04T03:23:16;8.60;58.20
76996;DHT22;65929;49.062;10.338;2023-06-04T03:24:17;8.60;58.50
76996;DHT22;65929;49.062;10.338;2023-06-04T03:25:18;8.60;58.30
76996;DHT22;65929;49.062;10.338;2023-06-04T03:26:19;8.60;58.30
76996;DHT22;65929;49.062;10.338;2023-06-04T03:27:22;8.50;58.70
76996;DHT22;65929;49.062;10.338;2023-06-04T03:28:23;8.50;58.50
76996;DHT22;65929;49.062;10.338;2023-06-04T03:29:24;8.50;58.30
76996;DHT22;65929;49.062;10.338;2023-06-04T03:30:25;8.50;58.30
76996;DHT22;65929;49.062;10.338;2023-06-04T03:31:26;8.40;58.40
76996;DHT22;65929;49.062;10.338;2023-06-04T03:32:27;8.50;58.90
76996;DHT22;65929;49.062;10.338;2023-06-04T03:33:28;8.40;58.80
76996;DHT22;65929;49.062;10.338;2023-06-04T03:34:29;8.40;59.00
76996;DHT22;65929;49.062;10.338;2023-06-04T03:35:32;8.40;59.20
76996;DHT22;65929;49.062;10.338;2023-06-04T03:36:33;8.40;59.50
76996;DHT22;65929;49.062;10.338;2023-06-04T03:37:38;8.40;59.60
76996;DHT22;65929;49.062;10.338;2023-06-04T03:38:39;8.40;59.60
76996;DHT22;65929;49.062;10.338;2023-06-04T03:39:43;8.40;60.50
76996;DHT22;65929;49.062;10.338;2023-06-04T03:40:45;8.40;60.50
76996;DHT22;65929;49.062;10.338;2023-06-04T03:41:47;8.40;61.10
76996;DHT22;65929;49.062;10.338;2023-06-04T03:42:49;8.30;60.30
76996;DHT22;65929;49.062;10.338;2023-06-04T03:43:50;8.40;60.60
76996;DHT22;65929;49.062;10.338;2023-06-04T03:44:53;8.40;61.00
76996;DHT22;65929;49.062;10.338;2023-06-04T03:45:54;8.40;61.40
76996;DHT22;65929;49.062;10.338;2023-06-04T03:46:55;8.40;65.20
76996;DHT22;65929;49.062;10.338;2023-06-04T03:47:56;8.40;66.50
76996;DHT22;65929;49.062;10.338;2023-06-04T03:48:57;8.40;64.50
76996;DHT22;65929;49.062;10.338;2023-06-04T03:49:58;8.40;62.10
76996;DHT22;65929;49.062;10.338;2023-06-04T03:50:59;8.50;60.90
76996;DHT22;65929;49.062;10.338;2023-06-04T03:52:00;8.50;60.30
76996;DHT22;65929;49.062;10.338;2023-06-04T03:53:01;8.50;60.10
76996;DHT22;65929;49.062;10.338;2023-06-04T03:54:02;8.50;59.50
76996;DHT22;65929;49.062;10.338;2023-06-04T03:55:04;8.60;59.20
76996;DHT22;65929;49.062;10.338;2023-06-04T03:56:05;8.60;59.50
76996;DHT22;65929;49.062;10.338;2023-06-04T03:57:06;8.50;59.50
76996;DHT22;65929;49.062;10.338;2023-06-04T03:58:08;8.50;59.60
76996;DHT22;65929;49.062;10.338;2023-06-04T03:59:12;8.60;59.70
76996;DHT22;65929;49.062;10.338;2023-06-04T04:00:14;8.60;59.70
76996;DHT22;65929;49.062;10.338;2023-06-04T04:01:15;8.60;59.70
76996;DHT22;65929;49.062;10.338;2023-06-04T04:02:17;8.60;60.30
76996;DHT22;65929;49.062;10.338;2023-06-04T04:03:19;8.60;60.50
76996;DHT22;65929;49.062;10.338;2023-06-04T04:04:20;8.60;62.30
76996;DHT22;65929;49.062;10.338;2023-06-04T04:05:21;8.60;64.40
76996;DHT22;65929;49.062;10.338;2023-06-04T04:06:22;8.60;63.60
76996;DHT22;65929;49.062;10.338;2023-06-04T04:07:23;8.70;64.70
76996;DHT22;65929;49.062;10.338;2023-06-04T04:08:25;8.80;65.20
76996;DHT22;65929;49.062;10.338;2023-06-04T04:09:32;8.80;64.20
76996;DHT22;65929;49.062;10.338;2023-06-04T04:10:33;8.90;61.90
76996;DHT22;65929;49.062;10.338;2023-06-04T04:11:34;8.90;61.00
76996;DHT22;65929;49.062;10.338;2023-06-04T04:12:35;8.90;60.60
76996;DHT22;65929;49.062;10.338;2023-06-04T04:13:37;9.00;60.20
76996;DHT22;65929;49.062;10.338;2023-06-04T04:14:38;9.00;59.70
76996;DHT22;65929;49.062;10.338;2023-06-04T04:15:39;9.00;59.50
76996;DHT22;65929;49.062;10.338;2023-06-04T04:16:40;9.00;59.10
76996;DHT22;65929;49.062;10.338;2023-06-04T04:17:41;9.10;58.50
76996;DHT22;65929;49.062;10.338;2023-06-04T04:18:43;9.20;58.50
76996;DHT22;65929;49.062;10.338;2023-06-04T04:19:45;9.20;57.80
76996;DHT22;65929;49.062;10.338;2023-06-04T04:20:46;9.20;58.00
76996;DHT22;65929;49.062;10.338;2023-06-04T04:21:47;9.30;57.80
76996;DHT22;65929;49.062;10.338;2023-06-04T04:22:51;9.40;58.30
76996;DHT22;65929;49.062;10.338;2023-06-04T04:23:52;9.40;58.00
76996;DHT22;65929;49.062;10.338;2023-06-04T04:24:53;9.50;58.80
76996;DHT22;65929;49.062;10.338;2023-06-04T04:25:54;9.50;59.30
76996;DHT22;65929;49.062;10.338;2023-06-04T04:26:57;9.50;59.40
76996;DHT22;65929;49.062;10.338;2023-06-04T04:27:59;9.60;59.30
76996;DHT22;65929;49.062;10.338;2023-06-04T04:29:02;9.60;58.50
76996;DHT22;65929;49.062;10.338;2023-06-04T04:30:05;9.70;58.60
76996;DHT22;65929;49.062;10.338;2023-06-04T04:31:06;9.70;58.50
76996;DHT22;65929;49.062;10.338;2023-06-04T04:32:09;9.70;58.20
76996;DHT22;65929;49.062;10.338;2023-06-04T04:33:13;9.80;57.70
76996;DHT22;65929;49.062;10.338;2023-06-04T04:34:16;9.80;57.80
76996;DHT22;65929;49.062;10.338;2023-06-04T04:35:17;9.80;57.10
76996;DHT22;65929;49.062;10.338;2023-06-04T04:36:18;9.90;56.30
76996;DHT22;65929;49.062;10.338;2023-06-04T04:37:19;10.00;56.20
76996;DHT22;65929;49.062;10.338;2023-06-04T04:38:22;10.00;57.20
76996;DHT22;65929;49.062;10.338;2023-06-04T04:39:25;10.00;55.90
76996;DHT22;65929;49.062;10.338;2023-06-04T04:40:26;10.00;55.80
76996;DHT22;65929;49.062;10.338;2023-06-04T04:41:27;10.00;55.70
76996;DHT22;65929;49.062;10.338;2023-06-04T04:42:28;10.10;54.80
76996;DHT22;65929;49.062;10.338;2023-06-04T04:43:30;10.10;55.00
76996;DHT22;65929;49.062;10.338;2023-06-04T04:44:32;10.20;54.20
76996;DHT22;65929;49.062;10.338;2023-06-04T04:45:33;10.30;54.50
76996;DHT22;65929;49.062;10.338;2023-06-04T04:46:34;10.30;54.20
76996;DHT22;65929;49.062;10.338;2023-06-04T04:47:35;10.30;54.10
76996;DHT22;65929;49.062;10.338;2023-06-04T04:48:36;10.40;54.10
76996;DHT22;65929;49.062;10.338;2023-06-04T04:49:39;10.40;54.00
76996;DHT22;65929;49.062;10.338;2023-06-04T04:50:40;10.40;54.00
76996;DHT22;65929;49.062;10.338;2023-06-04T04:51:41;10.50;54.00
76996;DHT22;65929;49.062;10.338;2023-06-04T04:52:42;10.50;54.30
76996;DHT22;65929;49.062;10.338;2023-06-04T04:53:43;10.50;54.70
76996;DHT22;65929;49.062;10.338;2023-06-04T04:54:44;10.60;54.40
76996;DHT22;65929;49.062;10.338;2023-06-04T04:55:45;10.70;54.40
76996;DHT22;65929;49.062;10.338;2023-06-04T04:56:46;10.70;54.20
76996;DHT22;65929;49.062;10.338;2023-06-04T04:57:47;10.80;54.30
76996;DHT22;65929;49.062;10.338;2023-06-04T04:58:48;10.80;53.70
76996;DHT22;65929;49.062;10.338;2023-06-04T04:59:50;10.90;54.50
76996;DHT22;65929;49.062;10.338;2023-06-04T05:00:51;11.00;54.80
76996;DHT22;65929;49.062;10.338;2023-06-04T05:01:52;11.00;54.50
76996;DHT22;65929;49.062;10.338;2023-06-04T05:02:53;11.10;54.00
76996;DHT22;65929;49.062;10.338;2023-06-04T05:03:54;11.10;53.70
76996;DHT22;65929;49.062;10.338;2023-06-04T05:04:55;11.10;53.50
76996;DHT22;65929;49.062;10.338;2023-06-04T05:05:56;11.20;52.90
76996;DHT22;65929;49.062;10.338;2023-06-04T05:06:57;11.30;52.50
76996;DHT22;65929;49.062;10.338;2023-06-04T05:07:58;11.40;52.60
76996;DHT22;65929;49.062;10.338;2023-06-04T05:08:59;11.50;52.40
76996;DHT22;65929;49.062;10.338;2023-06-04T05:10:00;11.50;52.10
76996;DHT22;65929;49.062;10.338;2023-06-04T05:11:01;11.50;51.60
76996;DHT22;65929;49.062;10.338;2023-06-04T05:12:02;11.60;51.40
76996;DHT22;65929;49.062;10.338;2023-06-04T05:13:03;11.70;51.40
76996;DHT22;65929;49.062;10.338;2023-06-04T05:14:06;11.70;50.70
76996;DHT22;65929;49.062;10.338;2023-06-04T05:15:10;11.70;50.70
76996;DHT22;65929;49.062;10.338;2023-06-04T05:16:13;11.70;51.00
76996;DHT22;65929;49.062;10.338;2023-06-04T05:17:14;11.80;51.30
76996;DHT22;65929;49.062;10.338;2023-06-04T05:18:17;11.80;51.00
76996;DHT22;65929;49.062;10.338;2023-06-04T05:19:21;11.80;50.90
76996;DHT22;65929;49.062;10.338;2023-06-04T05:20:22;11.80;50.70
76996;DHT22;65929;49.062;10.338;2023-06-04T05:21:23;11.80;50.40
76996;DHT22;65929;49.062;10.338;2023-06-04T05:22:24;11.90;50.30
76996;DHT22;65929;49.062;10.338;2023-06-04T05:23:29;11.90;50.70
76996;DHT22;65929;49.062;10.338;2023-06-04T05:24:37;11.90;50.70
76996;DHT22;65929;49.062;10.338;2023-06-04T05:25:38;11.90;51.00
76996;DHT22;65929;49.062;10.338;2023-06-04T05:26:39;11.90;50.60
76996;DHT22;65929;49.062;10.338;2023-06-04T05:27:41;11.90;50.70
76996;DHT22;65929;49.062;10.338;2023-06-04T05:28:42;12.00;50.60
76996;DHT22;65929;49.062;10.338;2023-06-04T05:29:44;12.00;50.90
76996;DHT22;65929;49.062;10.338;2023-06-04T05:30:46;12.00;49.70
76996;DHT22;65929;49.062;10.338;2023-06-04T05:31:49;12.00;49.90
76996;DHT22;65929;49.062;10.338;2023-06-04T05:32:50;12.10;50.00
76996;DHT22;65929;49.062;10.338;2023-06-04T05:33:54;12.10;49.30
76996;DHT22;65929;49.062;10.338;2023-06-04T05:34:54;12.20;49.50
76996;DHT22;65929;49.062;10.338;2023-06-04T05:35:59;12.20;49.50
76996;DHT22;65929;49.062;10.338;2023-06-04T05:37:00;12.20;49.30
76996;DHT22;65929;49.062;10.338;2023-06-04T05:38:01;12.30;49.40
76996;DHT22;65929;49.062;10.338;2023-06-04T05:39:02;12.30;49.20
76996;DHT22;65929;49.062;10.338;2023-06-04T05:40:04;12.30;49.40
76996;DHT22;65929;49.062;10.338;2023-06-04T05:41:06;12.40;49.50
76996;DHT22;65929;49.062;10.338;2023-06-04T05:42:07;12.40;49.70
76996;DHT22;65929;49.062;10.338;2023-06-04T05:43:08;12.50;50.20
76996;DHT22;65929;49.062;10.338;2023-06-04T05:44:09;12.50;49.90
76996;DHT22;65929;49.062;10.338;2023-06-04T05:45:10;12.50;49.50
76996;DHT22;65929;49.062;10.338;2023-06-04T05:46:33;12.50;48.90
76996;DHT22;65929;49.062;10.338;2023-06-04T05:47:53;12.60;49.30
76996;DHT22;65929;49.062;10.338;2023-06-04T05:48:54;12.70;49.50
76996;DHT22;65929;49.062;10.338;2023-06-04T05:49:55;12.70;49.40
76996;DHT22;65929;49.062;10.338;2023-06-04T05:50:56;12.70;49.50
76996;DHT22;65929;49.062;10.338;2023-06-04T05:51:57;12.70;49.50
76996;DHT22;65929;49.062;10.338;2023-06-04T05:52:58;12.80;49.50
76996;DHT22;65929;49.062;10.338;2023-06-04T05:53:59;12.80;49.00
76996;DHT22;65929;49.062;10.338;2023-06-04T05:55:00;12.90;49.00
76996;DHT22;65929;49.062;10.338;2023-06-04T05:56:04;12.90;49.00
76996;DHT22;65929;49.062;10.338;2023-06-04T05:57:05;13.00;49.40
76996;DHT22;65929;49.062;10.338;2023-06-04T05:58:06;13.00;48.90
76996;DHT22;65929;49.062;10.338;2023-06-04T05:59:07;13.00;48.80
76996;DHT22;65929;49.062;10.338;2023-06-04T06:00:09;13.10;48.90
76996;DHT22;65929;49.062;10.338;2023-06-04T06:01:12;13.10;49.20
76996;DHT22;65929;49.062;10.338;2023-06-04T06:02:13;13.10;49.40
76996;DHT22;65929;49.062;10.338;2023-06-04T06:03:15;13.10;49.40
76996;DHT22;65929;49.062;10.338;2023-06-04T06:04:17;13.10;48.60
76996;DHT22;65929;49.062;10.338;2023-06-04T06:05:18;13.20;49.00
76996;DHT22;65929;49.062;10.338;2023-06-04T06:06:20;13.30;49.20
76996;DHT22;65929;49.062;10.338;2023-06-04T06:07:21;13.30;49.40
76996;DHT22;65929;49.062;10.338;2023-06-04T06:08:22;13.30;49.30
76996;DHT22;65929;49.062;10.338;2023-06-04T06:09:26;13.30;49.30
76996;DHT22;65929;49.062;10.338;2023-06-04T06:10:27;13.30;48.90
76996;DHT22;65929;49.062;10.338;2023-06-04T06:11:28;13.40;49.00
76996;DHT22;65929;49.062;10.338;2023-06-04T06:12:29;13.50;49.40
76996;DHT22;65929;49.062;10.338;2023-06-04T06:13:30;13.50;49.40
76996;DHT22;65929;49.062;10.338;2023-06-04T06:14:31;13.50;49.30
76996;DHT22;65929;49.062;10.338;2023-06-04T06:15:32;13.50;49.40
76996;DHT22;65929;49.062;10.338;2023-06-04T06:16:35;13.50;49.10
76996;DHT22;65929;49.062;10.338;2023-06-04T06:17:38;13.60;49.50
76996;DHT22;65929;49.062;10.338;2023-06-04T06:18:39;13.70;49.50
76996;DHT22;65929;49.062;10.338;2023-06-04T06:19:40;13.70;49.10
76996;DHT22;65929;49.062;10.338;2023-06-04T06:20:41;13.80;49.00
76996;DHT22;65929;49.062;10.338;2023-06-04T06:21:42;13.90;49.10
76996;DHT22;65929;49.062;10.338;2023-06-04T06:22:43;13.90;49.10
76996;DHT22;65929;49.062;10.338;2023-06-04T06:23:45;13.90;48.30
76996;DHT22;65929;49.062;10.338;2023-06-04T06:24:52;14.00;47.90
76996;DHT22;65929;49.062;10.338;2023-06-04T06:25:53;14.00;48.20
76996;DHT22;65929;49.062;10.338;2023-06-04T06:26:55;14.10;47.60
76996;DHT22;65929;49.062;10.338;2023-06-04T06:27:56;14.10;47.70
76996;DHT22;65929;49.062;10.338;2023-06-04T06:28:57;14.20;47.50
76996;DHT22;65929;49.062;10.338;2023-06-04T06:29:59;14.20;47.20